LKSZ weather

Sazená Airport
Sazená, Central Bohemian Region, Czechia

Public forecast

Using degrees Celsius for public forecast. Weather courtesy of forecast.io.

Closest aviation weather report (METAR) to Sazená Airport

Report is more than 6 hours old.

Closest report is Vodochody Airport, 8.4 nm (15.5 km) SE. Retrieved 2019/10/18 14:00 UTC (18 hours ago):

LKVO 181400Z 16006KT 120V210 9999 FEW045 20/10 Q1012

Closest aviation forecast (TAF) to Sazená Airport

Closest forecast is Václav Havel Airport Prague, 13.4 nm (24.9 km) S. Retrieved 2019/10/19 06:15 UTC (2 hours ago):

TAF LKPR 190500Z 1906/2012 15008KT CAVOK PROB30 TEMPO 1906/1908 VRB02KT 2500 BR SCT009 BECMG 2000/2002 5000 BR NSC TEMPO 2003/2007 1200 BCFG BKN005 PROB30 TEMPO 2003/2007 0400 FG BKN001